VOZ567 YSSY-YPPH
Flight info
| Callsign | VOZ567 |
|---|---|
| Flight time | N/A |
| Altitude | 36000 |
| Route | KADOM1/34L KADOM H44 AD Q33 LOTGI/N0456F380 Q33 ESP Q158 PH |
| Aircraft | B738/M-SDE2E3FGHIRWXY/LB1 |
Departure
| Time | N/A |
|---|---|
| Airport | Sydney Kingsford Smith International Airport (YSSY) |
Arrival
| Time | 2026-05-01 08:15 |
|---|---|
| Airport | Perth International Airport (YPPH) |
| Time | Latitude | Longitude | Altitude | Speed | Heading |
|---|---|---|---|---|---|
| 2026-05-01 07:23 | -33.42613 | 120.97181 | 38103 ft | 415 kts | 282° |
| 2026-05-01 07:24 | -33.39657 | 120.87450 | 38111 ft | 415 kts | 282° |
| 2026-05-01 07:24 | -33.37695 | 120.81010 | 38116 ft | 414 kts | 282° |
| 2026-05-01 07:25 | -33.35717 | 120.74530 | 38112 ft | 415 kts | 282° |
| 2026-05-01 07:25 | -33.33738 | 120.68060 | 38118 ft | 415 kts | 282° |
| 2026-05-01 07:26 | -33.31753 | 120.61585 | 38120 ft | 415 kts | 282° |
| 2026-05-01 07:26 | -33.29761 | 120.55101 | 38135 ft | 416 kts | 282° |
| 2026-05-01 07:27 | -33.27763 | 120.48612 | 38134 ft | 417 kts | 282° |
| 2026-05-01 07:27 | -33.25754 | 120.42098 | 38127 ft | 417 kts | 282° |
| 2026-05-01 07:28 | -33.23742 | 120.35593 | 38131 ft | 418 kts | 282° |
| 2026-05-01 07:28 | -33.21722 | 120.29075 | 38132 ft | 418 kts | 282° |
| 2026-05-01 07:29 | -33.19707 | 120.22588 | 38130 ft | 419 kts | 282° |
| 2026-05-01 07:29 | -33.17676 | 120.16063 | 38137 ft | 419 kts | 282° |
| 2026-05-01 07:30 | -33.15639 | 120.09532 | 38139 ft | 420 kts | 282° |
| 2026-05-01 07:30 | -33.13942 | 120.04101 | 38142 ft | 420 kts | 282° |
| 2026-05-01 07:31 | -33.11566 | 119.96515 | 38141 ft | 420 kts | 282° |
| 2026-05-01 07:32 | -33.06432 | 119.80184 | 38139 ft | 419 kts | 282° |
| 2026-05-01 07:33 | -33.03369 | 119.70482 | 38143 ft | 417 kts | 282° |
| 2026-05-01 07:33 | -33.00284 | 119.60733 | 38146 ft | 416 kts | 282° |
| 2026-05-01 07:34 | -32.97211 | 119.51070 | 38161 ft | 415 kts | 282° |
| 2026-05-01 07:35 | -32.95160 | 119.44641 | 38160 ft | 415 kts | 282° |
| 2026-05-01 07:35 | -32.93110 | 119.38221 | 38164 ft | 414 kts | 282° |
| 2026-05-01 07:36 | -32.91076 | 119.31864 | 38159 ft | 414 kts | 282° |
| 2026-05-01 07:36 | -32.89007 | 119.25411 | 38161 ft | 414 kts | 282° |
| 2026-05-01 07:37 | -32.85925 | 119.15824 | 38164 ft | 413 kts | 282° |
| 2026-05-01 07:37 | -32.83880 | 119.09481 | 38167 ft | 413 kts | 282° |
| 2026-05-01 07:38 | -32.81820 | 119.03101 | 38174 ft | 413 kts | 282° |
| 2026-05-01 07:39 | -32.78727 | 118.93544 | 38171 ft | 413 kts | 282° |
| 2026-05-01 07:39 | -32.75624 | 118.83992 | 38174 ft | 413 kts | 282° |
| 2026-05-01 07:40 | -32.73567 | 118.77671 | 38188 ft | 413 kts | 282° |
| 2026-05-01 07:40 | -32.71490 | 118.71306 | 38192 ft | 413 kts | 282° |
| 2026-05-01 07:41 | -32.69383 | 118.64858 | 38187 ft | 413 kts | 282° |
| 2026-05-01 07:42 | -32.66274 | 118.55373 | 38183 ft | 413 kts | 283° |
| 2026-05-01 07:42 | -32.64191 | 118.49030 | 38184 ft | 412 kts | 283° |
| 2026-05-01 07:43 | -32.62106 | 118.42697 | 38188 ft | 412 kts | 283° |
| 2026-05-01 07:43 | -32.59037 | 118.33442 | 38175 ft | 381 kts | 282° |
| 2026-05-01 07:44 | -32.57153 | 118.27776 | 38197 ft | 363 kts | 282° |
| 2026-05-01 07:44 | -32.55307 | 118.22156 | 38121 ft | 369 kts | 282° |
| 2026-05-01 07:45 | -32.53426 | 118.16451 | 38025 ft | 374 kts | 282° |
| 2026-05-01 07:45 | -32.51513 | 118.10696 | 38139 ft | 375 kts | 283° |
| 2026-05-01 07:46 | -32.49595 | 118.04943 | 38200 ft | 376 kts | 283° |
| 2026-05-01 07:47 | -32.47005 | 117.97180 | 38207 ft | 381 kts | 283° |
| 2026-05-01 07:47 | -32.45056 | 117.91353 | 38222 ft | 384 kts | 283° |
| 2026-05-01 07:48 | -32.42069 | 117.82443 | 38213 ft | 389 kts | 283° |
| 2026-05-01 07:48 | -32.40058 | 117.76460 | 38217 ft | 392 kts | 283° |
| 2026-05-01 07:49 | -32.37084 | 117.67647 | 38201 ft | 376 kts | 283° |
| 2026-05-01 07:50 | -32.35414 | 117.61879 | 38225 ft | 366 kts | 278° |
| 2026-05-01 07:50 | -32.33388 | 117.53164 | 38230 ft | 370 kts | 277° |
| 2026-05-01 07:51 | -32.32001 | 117.47268 | 38232 ft | 374 kts | 278° |
| 2026-05-01 07:52 | -32.29848 | 117.38268 | 36954 ft | 388 kts | 278° |
| 2026-05-01 07:52 | -32.29101 | 117.35155 | 35953 ft | 399 kts | 278° |
| 2026-05-01 07:52 | -32.28337 | 117.31981 | 35132 ft | 405 kts | 278° |
| 2026-05-01 07:53 | -32.26781 | 117.25584 | 34070 ft | 402 kts | 278° |
| 2026-05-01 07:53 | -32.26018 | 117.22457 | 33554 ft | 399 kts | 278° |
| 2026-05-01 07:53 | -32.25253 | 117.19320 | 33056 ft | 396 kts | 277° |
| 2026-05-01 07:53 | -32.24495 | 117.16205 | 32548 ft | 393 kts | 277° |
| 2026-05-01 07:54 | -32.22991 | 117.10024 | 31549 ft | 389 kts | 277° |
| 2026-05-01 07:55 | -32.20747 | 117.00823 | 30130 ft | 384 kts | 277° |
| 2026-05-01 07:55 | -32.19278 | 116.94817 | 29113 ft | 377 kts | 277° |
| 2026-05-01 07:56 | -32.16996 | 116.85474 | 26009 ft | 409 kts | 278° |
| 2026-05-01 07:56 | -32.15376 | 116.78922 | 24144 ft | 421 kts | 279° |
| 2026-05-01 07:57 | -32.14548 | 116.75588 | 23132 ft | 426 kts | 279° |
| 2026-05-01 07:57 | -32.12869 | 116.68843 | 21089 ft | 429 kts | 280° |
| 2026-05-01 07:58 | -32.11193 | 116.62128 | 19193 ft | 429 kts | 280° |
| 2026-05-01 07:58 | -32.09512 | 116.55399 | 17398 ft | 423 kts | 280° |
| 2026-05-01 07:59 | -32.07917 | 116.49080 | 17101 ft | 382 kts | 280° |
| 2026-05-01 07:59 | -32.06469 | 116.43337 | 16868 ft | 349 kts | 279° |
| 2026-05-01 08:00 | -32.03824 | 116.32722 | 14804 ft | 344 kts | 279° |
| 2026-05-01 08:01 | -32.01849 | 116.24848 | 12704 ft | 354 kts | 279° |
| 2026-05-01 08:01 | -32.01142 | 116.22048 | 11953 ft | 357 kts | 279° |
| 2026-05-01 08:01 | -32.00429 | 116.19230 | 11226 ft | 359 kts | 280° |
| 2026-05-01 08:02 | -31.98992 | 116.13562 | 9798 ft | 361 kts | 281° |
| 2026-05-01 08:02 | -31.98277 | 116.10760 | 9533 ft | 349 kts | 281° |
| 2026-05-01 08:03 | -31.95330 | 116.06529 | 9245 ft | 342 kts | 335° |
| 2026-05-01 08:03 | -31.93076 | 116.06048 | 9221 ft | 329 kts | 5° |
| 2026-05-01 08:03 | -31.88666 | 116.07294 | 8309 ft | 328 kts | 18° |
| 2026-05-01 08:04 | -31.84299 | 116.08882 | 7328 ft | 329 kts | 18° |
| 2026-05-01 08:04 | -31.79941 | 116.10504 | 6368 ft | 327 kts | 18° |
| 2026-05-01 08:05 | -31.75697 | 116.12102 | 5571 ft | 312 kts | 18° |
| 2026-05-01 08:05 | -31.73653 | 116.12874 | 5168 ft | 304 kts | 19° |
| 2026-05-01 08:05 | -31.71688 | 116.13614 | 4875 ft | 295 kts | 19° |
| 2026-05-01 08:06 | -31.67943 | 116.15013 | 4249 ft | 271 kts | 19° |
| 2026-05-01 08:06 | -31.64563 | 116.14871 | 3826 ft | 234 kts | 317° |
| 2026-05-01 08:07 | -31.63612 | 116.11769 | 3464 ft | 197 kts | 271° |
| 2026-05-01 08:07 | -31.63957 | 116.08709 | 3059 ft | 189 kts | 240° |
| 2026-05-01 08:08 | -31.64663 | 116.07403 | 3055 ft | 189 kts | 226° |
| 2026-05-01 08:08 | -31.66767 | 116.05787 | 3022 ft | 186 kts | 197° |
| 2026-05-01 08:09 | -31.69324 | 116.04769 | 3011 ft | 196 kts | 197° |
| 2026-05-01 08:09 | -31.70622 | 116.04254 | 3007 ft | 199 kts | 197° |
| 2026-05-01 08:09 | -31.71938 | 116.03734 | 3005 ft | 200 kts | 197° |
| 2026-05-01 08:10 | -31.74594 | 116.02694 | 2575 ft | 199 kts | 197° |
| 2026-05-01 08:10 | -31.77062 | 116.01730 | 2509 ft | 177 kts | 197° |
| 2026-05-01 08:11 | -31.79270 | 116.00872 | 2477 ft | 158 kts | 196° |
| 2026-05-01 08:11 | -31.81424 | 116.00181 | 2383 ft | 152 kts | 193° |
| 2026-05-01 08:12 | -31.83313 | 115.99627 | 2014 ft | 135 kts | 192° |
| 2026-05-01 08:12 | -31.84221 | 115.99363 | 1824 ft | 139 kts | 192° |
| 2026-05-01 08:12 | -31.86144 | 115.98802 | 1443 ft | 142 kts | 192° |
| 2026-05-01 08:13 | -31.87102 | 115.98523 | 1256 ft | 142 kts | 192° |
| 2026-05-01 08:13 | -31.88060 | 115.98244 | 1072 ft | 142 kts | 191° |
| 2026-05-01 08:13 | -31.89990 | 115.97681 | 696 ft | 141 kts | 191° |
| 2026-05-01 08:14 | -31.90931 | 115.97408 | 508 ft | 138 kts | 194° |
| 2026-05-01 08:14 | -31.91528 | 115.97233 | 389 ft | 135 kts | 194° |
| 2026-05-01 08:14 | -31.92549 | 115.96935 | 203 ft | 138 kts | 194° |
| 2026-05-01 08:14 | -31.93506 | 115.96655 | 66 ft | 118 kts | 194° |
| 2026-05-01 08:15 | -31.93970 | 115.96521 | 66 ft | 49 kts | 193° |
| 2026-05-01 08:15 | -31.94398 | 115.96406 | 63 ft | 9 kts | 172° |
| 2026-05-01 08:15 | -31.94455 | 115.96439 | 63 ft | 10 kts | 141° |
| 2026-05-01 08:16 | -31.94480 | 115.96528 | 60 ft | 13 kts | 104° |
| 2026-05-01 08:16 | -31.94505 | 115.96646 | 65 ft | 16 kts | 103° |
| 2026-05-01 08:16 | -31.94466 | 115.96729 | 67 ft | 14 kts | 22° |
| 2026-05-01 08:16 | -31.94361 | 115.96758 | 67 ft | 17 kts | 15° |
| 2026-05-01 08:17 | -31.94238 | 115.96796 | 62 ft | 18 kts | 14° |
| 2026-05-01 08:17 | -31.94200 | 115.96914 | 59 ft | 18 kts | 109° |
| 2026-05-01 08:17 | -31.94190 | 115.97002 | 62 ft | 7 kts | 8° |
| 2026-05-01 08:17 | -31.94149 | 115.97013 | 61 ft | 0 kts | 13° |